aviador You're here:

KDLS Decoded Metar

THE DALLES in OR, USA
Report Time2018-07-21 17:53:00
UTC Time2018-07-21 18:54:40
Flight Rules vfr VFR
Wind340° at 14 Gusting to 19 kt
W.Decomp.*RWY 31: 13.5 kt HW 3.6 kt RCW
RWY 25: 3.6 kt HW 13.5 kt RCW
W.Rank340° ranks 7
Current wind is above 340° avg. (8.4)
Visibility9999 m
Phenomena:N/A
Clouds:N/A
Expected CloudBase > 6,400 ft AGL from Temp-Dew spread
CeilingNone
Temp24°C (ISA +9)
Dew Point08°C (36% RH)
AAT18.5°C
QNH1017 hPa
Density Alt1,345 ft
Elevation233 ft
Report Wrong Elevation
Raw Report
KDLS 211753Z AUTO 34014G19KT 10SM CLR 24/08 A3004 RMK AO2 SLP171
T02440083 10244 20161 58009=

Extra information for KDLS:More info

Metar Taf Metar & Taf Last 4 Metars F.Rules Stats Wind Profile Meteogram Temp Stats Airport Information Weather charts Add Link Nearby VenuesMetar ALERT Operation Metar Decoded Social comments

AIRNAV info for KDLS